sensor_id;sensor_type;location;lat;lon;timestamp;P1;durP1;ratioP1;P2;durP2;ratioP2
16577;SDS011;8401;52.528;13.340;2023-05-08T00:00:22;3.87;;;3.57;;
16577;SDS011;8401;52.528;13.340;2023-05-08T00:02:48;4.70;;;3.57;;
16577;SDS011;8401;52.528;13.340;2023-05-08T00:05:13;5.00;;;4.07;;
16577;SDS011;8401;52.528;13.340;2023-05-08T00:07:39;6.03;;;3.80;;
16577;SDS011;8401;52.528;13.340;2023-05-08T00:10:05;5.00;;;3.60;;
16577;SDS011;8401;52.528;13.340;2023-05-08T00:12:33;3.97;;;3.63;;
16577;SDS011;8401;52.528;13.340;2023-05-08T00:14:59;6.60;;;4.30;;
16577;SDS011;8401;52.528;13.340;2023-05-08T00:17:25;4.00;;;3.60;;
16577;SDS011;8401;52.528;13.340;2023-05-08T00:19:50;4.97;;;4.10;;
16577;SDS011;8401;52.528;13.340;2023-05-08T00:22:17;5.93;;;4.30;;
16577;SDS011;8401;52.528;13.340;2023-05-08T00:24:43;5.83;;;3.90;;
16577;SDS011;8401;52.528;13.340;2023-05-08T00:27:08;5.17;;;4.60;;
16577;SDS011;8401;52.528;13.340;2023-05-08T00:29:34;5.37;;;4.20;;
16577;SDS011;8401;52.528;13.340;2023-05-08T00:32:00;5.90;;;4.07;;
16577;SDS011;8401;52.528;13.340;2023-05-08T00:34:26;4.70;;;4.00;;
16577;SDS011;8401;52.528;13.340;2023-05-08T00:36:51;5.80;;;3.90;;
16577;SDS011;8401;52.528;13.340;2023-05-08T00:39:17;5.37;;;4.20;;
16577;SDS011;8401;52.528;13.340;2023-05-08T00:41:43;4.33;;;3.83;;
16577;SDS011;8401;52.528;13.340;2023-05-08T00:44:09;6.17;;;4.97;;
16577;SDS011;8401;52.528;13.340;2023-05-08T00:46:35;7.40;;;4.73;;
16577;SDS011;8401;52.528;13.340;2023-05-08T00:49:01;6.97;;;4.90;;
16577;SDS011;8401;52.528;13.340;2023-05-08T00:51:28;4.80;;;4.37;;
16577;SDS011;8401;52.528;13.340;2023-05-08T00:53:55;5.63;;;4.70;;
16577;SDS011;8401;52.528;13.340;2023-05-08T00:56:21;5.90;;;4.93;;
16577;SDS011;8401;52.528;13.340;2023-05-08T00:58:48;5.97;;;5.37;;
16577;SDS011;8401;52.528;13.340;2023-05-08T01:01:15;4.63;;;4.17;;
16577;SDS011;8401;52.528;13.340;2023-05-08T01:03:41;4.73;;;4.23;;
16577;SDS011;8401;52.528;13.340;2023-05-08T01:06:08;4.50;;;4.10;;
16577;SDS011;8401;52.528;13.340;2023-05-08T01:08:34;5.10;;;4.60;;
16577;SDS011;8401;52.528;13.340;2023-05-08T01:16:57;6.37;;;5.20;;
16577;SDS011;8401;52.528;13.340;2023-05-08T01:32:33;4.97;;;4.43;;
16577;SDS011;8401;52.528;13.340;2023-05-08T01:37:40;5.90;;;4.80;;
16577;SDS011;8401;52.528;13.340;2023-05-08T01:40:20;5.37;;;4.47;;
16577;SDS011;8401;52.528;13.340;2023-05-08T01:42:55;7.53;;;4.77;;
16577;SDS011;8401;52.528;13.340;2023-05-08T01:45:33;7.27;;;5.40;;
16577;SDS011;8401;52.528;13.340;2023-05-08T01:48:04;6.43;;;4.77;;
16577;SDS011;8401;52.528;13.340;2023-05-08T01:50:57;6.10;;;4.70;;
16577;SDS011;8401;52.528;13.340;2023-05-08T01:53:26;6.57;;;4.53;;
16577;SDS011;8401;52.528;13.340;2023-05-08T01:55:59;5.30;;;4.60;;
16577;SDS011;8401;52.528;13.340;2023-05-08T01:58:29;5.97;;;5.37;;
16577;SDS011;8401;52.528;13.340;2023-05-08T02:00:57;8.10;;;5.03;;
16577;SDS011;8401;52.528;13.340;2023-05-08T02:03:23;6.10;;;4.97;;
16577;SDS011;8401;52.528;13.340;2023-05-08T02:05:50;7.97;;;4.80;;
16577;SDS011;8401;52.528;13.340;2023-05-08T02:08:19;5.53;;;4.77;;
16577;SDS011;8401;52.528;13.340;2023-05-08T02:10:47;7.30;;;5.10;;
16577;SDS011;8401;52.528;13.340;2023-05-08T02:13:15;5.87;;;5.30;;
16577;SDS011;8401;52.528;13.340;2023-05-08T02:15:43;7.17;;;5.20;;
16577;SDS011;8401;52.528;13.340;2023-05-08T02:18:12;6.23;;;4.43;;
16577;SDS011;8401;52.528;13.340;2023-05-08T02:20:40;5.20;;;4.47;;
16577;SDS011;8401;52.528;13.340;2023-05-08T02:23:06;5.93;;;5.10;;
16577;SDS011;8401;52.528;13.340;2023-05-08T02:25:33;6.40;;;4.87;;
16577;SDS011;8401;52.528;13.340;2023-05-08T02:28:00;7.27;;;5.20;;
16577;SDS011;8401;52.528;13.340;2023-05-08T02:30:26;5.43;;;4.47;;
16577;SDS011;8401;52.528;13.340;2023-05-08T02:32:53;7.50;;;5.23;;
16577;SDS011;8401;52.528;13.340;2023-05-08T02:35:21;5.80;;;5.23;;
16577;SDS011;8401;52.528;13.340;2023-05-08T02:37:50;6.33;;;5.10;;
16577;SDS011;8401;52.528;13.340;2023-05-08T02:40:19;6.00;;;5.13;;
16577;SDS011;8401;52.528;13.340;2023-05-08T02:42:46;5.90;;;5.10;;
16577;SDS011;8401;52.528;13.340;2023-05-08T02:45:13;6.30;;;4.80;;
16577;SDS011;8401;52.528;13.340;2023-05-08T02:47:46;6.23;;;5.13;;
16577;SDS011;8401;52.528;13.340;2023-05-08T02:50:18;7.47;;;5.50;;
16577;SDS011;8401;52.528;13.340;2023-05-08T02:52:51;6.80;;;5.00;;
16577;SDS011;8401;52.528;13.340;2023-05-08T02:58:28;7.87;;;5.60;;
16577;SDS011;8401;52.528;13.340;2023-05-08T03:01:04;7.90;;;5.13;;
16577;SDS011;8401;52.528;13.340;2023-05-08T03:03:39;7.93;;;5.70;;
16577;SDS011;8401;52.528;13.340;2023-05-08T03:06:10;5.90;;;5.10;;
16577;SDS011;8401;52.528;13.340;2023-05-08T03:08:38;5.43;;;4.70;;
16577;SDS011;8401;52.528;13.340;2023-05-08T03:11:12;6.10;;;5.13;;
16577;SDS011;8401;52.528;13.340;2023-05-08T03:13:49;5.80;;;5.03;;
16577;SDS011;8401;52.528;13.340;2023-05-08T03:16:21;6.63;;;5.63;;
16577;SDS011;8401;52.528;13.340;2023-05-08T03:18:53;6.17;;;5.37;;
16577;SDS011;8401;52.528;13.340;2023-05-08T03:21:22;6.63;;;5.23;;
16577;SDS011;8401;52.528;13.340;2023-05-08T03:23:52;6.07;;;5.40;;
16577;SDS011;8401;52.528;13.340;2023-05-08T03:26:18;7.00;;;5.37;;
16577;SDS011;8401;52.528;13.340;2023-05-08T03:28:49;7.30;;;5.57;;
16577;SDS011;8401;52.528;13.340;2023-05-08T03:31:16;6.67;;;5.87;;
16577;SDS011;8401;52.528;13.340;2023-05-08T03:33:45;7.87;;;5.67;;
16577;SDS011;8401;52.528;13.340;2023-05-08T03:36:12;7.93;;;5.40;;
16577;SDS011;8401;52.528;13.340;2023-05-08T03:38:41;8.10;;;5.40;;
16577;SDS011;8401;52.528;13.340;2023-05-08T03:41:07;6.67;;;5.77;;
16577;SDS011;8401;52.528;13.340;2023-05-08T03:43:35;7.27;;;5.40;;
16577;SDS011;8401;52.528;13.340;2023-05-08T03:46:01;7.27;;;5.77;;
16577;SDS011;8401;52.528;13.340;2023-05-08T03:48:29;6.60;;;5.77;;
16577;SDS011;8401;52.528;13.340;2023-05-08T03:50:58;6.67;;;5.33;;
16577;SDS011;8401;52.528;13.340;2023-05-08T03:53:26;6.73;;;5.57;;
16577;SDS011;8401;52.528;13.340;2023-05-08T03:55:58;6.70;;;6.00;;
16577;SDS011;8401;52.528;13.340;2023-05-08T03:58:44;6.13;;;5.20;;
16577;SDS011;8401;52.528;13.340;2023-05-08T04:01:21;8.07;;;5.53;;
16577;SDS011;8401;52.528;13.340;2023-05-08T04:04:18;7.90;;;5.67;;
16577;SDS011;8401;52.528;13.340;2023-05-08T04:09:38;7.93;;;6.00;;
16577;SDS011;8401;52.528;13.340;2023-05-08T04:12:48;8.87;;;5.33;;
16577;SDS011;8401;52.528;13.340;2023-05-08T04:15:17;6.67;;;5.50;;
16577;SDS011;8401;52.528;13.340;2023-05-08T04:17:54;6.90;;;5.63;;
16577;SDS011;8401;52.528;13.340;2023-05-08T04:20:24;8.37;;;5.33;;
16577;SDS011;8401;52.528;13.340;2023-05-08T04:22:52;7.10;;;5.37;;
16577;SDS011;8401;52.528;13.340;2023-05-08T04:25:19;6.77;;;5.50;;
16577;SDS011;8401;52.528;13.340;2023-05-08T04:27:45;6.90;;;5.03;;
16577;SDS011;8401;52.528;13.340;2023-05-08T04:30:15;7.53;;;5.37;;
16577;SDS011;8401;52.528;13.340;2023-05-08T04:32:41;7.80;;;6.10;;
16577;SDS011;8401;52.528;13.340;2023-05-08T04:35:08;6.83;;;5.23;;
16577;SDS011;8401;52.528;13.340;2023-05-08T04:37:35;7.27;;;5.60;;
16577;SDS011;8401;52.528;13.340;2023-05-08T04:40:01;7.60;;;5.60;;
16577;SDS011;8401;52.528;13.340;2023-05-08T04:42:28;7.37;;;4.90;;
16577;SDS011;8401;52.528;13.340;2023-05-08T04:44:54;8.10;;;6.07;;
16577;SDS011;8401;52.528;13.340;2023-05-08T04:47:20;6.80;;;5.70;;
16577;SDS011;8401;52.528;13.340;2023-05-08T04:49:47;7.40;;;5.70;;
16577;SDS011;8401;52.528;13.340;2023-05-08T04:52:13;7.70;;;5.77;;
16577;SDS011;8401;52.528;13.340;2023-05-08T04:54:39;7.20;;;5.67;;
16577;SDS011;8401;52.528;13.340;2023-05-08T04:57:05;7.00;;;5.43;;
16577;SDS011;8401;52.528;13.340;2023-05-08T04:59:32;6.27;;;4.53;;
16577;SDS011;8401;52.528;13.340;2023-05-08T05:01:58;7.03;;;5.17;;
16577;SDS011;8401;52.528;13.340;2023-05-08T05:04:26;7.23;;;5.80;;
16577;SDS011;8401;52.528;13.340;2023-05-08T05:06:52;7.77;;;5.83;;
16577;SDS011;8401;52.528;13.340;2023-05-08T05:09:17;5.97;;;5.10;;
16577;SDS011;8401;52.528;13.340;2023-05-08T05:11:43;7.70;;;5.63;;
16577;SDS011;8401;52.528;13.340;2023-05-08T05:14:09;7.33;;;5.47;;
16577;SDS011;8401;52.528;13.340;2023-05-08T05:16:34;5.47;;;4.30;;
16577;SDS011;8401;52.528;13.340;2023-05-08T05:19:00;8.33;;;5.33;;
16577;SDS011;8401;52.528;13.340;2023-05-08T05:21:26;5.40;;;4.43;;
16577;SDS011;8401;52.528;13.340;2023-05-08T05:23:52;6.93;;;5.10;;
16577;SDS011;8401;52.528;13.340;2023-05-08T05:26:18;6.83;;;5.17;;
16577;SDS011;8401;52.528;13.340;2023-05-08T05:28:44;8.00;;;5.03;;
16577;SDS011;8401;52.528;13.340;2023-05-08T05:31:09;6.67;;;5.33;;
16577;SDS011;8401;52.528;13.340;2023-05-08T05:33:35;6.90;;;5.10;;
16577;SDS011;8401;52.528;13.340;2023-05-08T05:36:00;7.63;;;4.70;;
16577;SDS011;8401;52.528;13.340;2023-05-08T05:38:26;6.50;;;5.80;;
16577;SDS011;8401;52.528;13.340;2023-05-08T05:40:52;6.73;;;5.00;;
16577;SDS011;8401;52.528;13.340;2023-05-08T05:43:17;8.03;;;5.17;;
16577;SDS011;8401;52.528;13.340;2023-05-08T05:45:43;5.80;;;4.60;;
16577;SDS011;8401;52.528;13.340;2023-05-08T05:48:09;5.83;;;4.20;;
16577;SDS011;8401;52.528;13.340;2023-05-08T05:50:34;5.10;;;4.27;;
16577;SDS011;8401;52.528;13.340;2023-05-08T05:53:01;6.03;;;4.67;;
16577;SDS011;8401;52.528;13.340;2023-05-08T05:55:27;6.23;;;4.40;;
16577;SDS011;8401;52.528;13.340;2023-05-08T05:57:53;5.67;;;4.07;;
16577;SDS011;8401;52.528;13.340;2023-05-08T06:00:19;6.07;;;4.90;;
16577;SDS011;8401;52.528;13.340;2023-05-08T06:02:45;5.03;;;4.13;;
16577;SDS011;8401;52.528;13.340;2023-05-08T06:05:11;4.53;;;3.10;;
16577;SDS011;8401;52.528;13.340;2023-05-08T06:07:37;5.83;;;3.87;;
16577;SDS011;8401;52.528;13.340;2023-05-08T06:10:03;4.67;;;3.83;;
16577;SDS011;8401;52.528;13.340;2023-05-08T06:12:30;4.60;;;3.73;;
16577;SDS011;8401;52.528;13.340;2023-05-08T06:14:55;4.80;;;3.60;;
16577;SDS011;8401;52.528;13.340;2023-05-08T06:17:21;4.30;;;3.30;;
16577;SDS011;8401;52.528;13.340;2023-05-08T06:19:47;3.97;;;3.30;;
16577;SDS011;8401;52.528;13.340;2023-05-08T06:22:18;8.27;;;3.87;;
16577;SDS011;8401;52.528;13.340;2023-05-08T06:24:47;5.23;;;3.30;;
16577;SDS011;8401;52.528;13.340;2023-05-08T06:27:12;4.03;;;3.30;;
16577;SDS011;8401;52.528;13.340;2023-05-08T06:29:38;4.53;;;3.40;;
16577;SDS011;8401;52.528;13.340;2023-05-08T06:32:04;5.53;;;3.53;;
16577;SDS011;8401;52.528;13.340;2023-05-08T06:34:29;3.60;;;2.70;;
16577;SDS011;8401;52.528;13.340;2023-05-08T06:36:55;4.33;;;3.07;;
16577;SDS011;8401;52.528;13.340;2023-05-08T06:39:21;4.27;;;3.13;;
16577;SDS011;8401;52.528;13.340;2023-05-08T06:41:46;4.27;;;2.97;;
16577;SDS011;8401;52.528;13.340;2023-05-08T06:44:12;4.47;;;2.97;;
16577;SDS011;8401;52.528;13.340;2023-05-08T06:46:38;6.80;;;2.57;;
16577;SDS011;8401;52.528;13.340;2023-05-08T06:49:04;4.37;;;3.20;;
16577;SDS011;8401;52.528;13.340;2023-05-08T06:51:30;4.00;;;2.40;;
16577;SDS011;8401;52.528;13.340;2023-05-08T06:53:56;3.93;;;2.93;;
16577;SDS011;8401;52.528;13.340;2023-05-08T06:56:22;3.40;;;2.80;;
16577;SDS011;8401;52.528;13.340;2023-05-08T06:58:48;3.13;;;2.27;;
16577;SDS011;8401;52.528;13.340;2023-05-08T07:01:14;3.73;;;2.40;;
16577;SDS011;8401;52.528;13.340;2023-05-08T07:03:40;5.73;;;2.73;;
16577;SDS011;8401;52.528;13.340;2023-05-08T07:06:06;2.40;;;1.80;;
16577;SDS011;8401;52.528;13.340;2023-05-08T07:08:35;4.07;;;2.93;;
16577;SDS011;8401;52.528;13.340;2023-05-08T07:11:01;3.07;;;2.60;;
16577;SDS011;8401;52.528;13.340;2023-05-08T07:13:27;3.30;;;2.77;;
16577;SDS011;8401;52.528;13.340;2023-05-08T07:15:53;3.40;;;2.47;;
16577;SDS011;8401;52.528;13.340;2023-05-08T07:18:19;4.70;;;2.77;;
16577;SDS011;8401;52.528;13.340;2023-05-08T07:20:45;4.80;;;2.70;;
16577;SDS011;8401;52.528;13.340;2023-05-08T07:23:11;4.07;;;2.00;;
16577;SDS011;8401;52.528;13.340;2023-05-08T07:25:36;4.20;;;1.97;;
16577;SDS011;8401;52.528;13.340;2023-05-08T07:28:02;3.53;;;2.70;;
16577;SDS011;8401;52.528;13.340;2023-05-08T07:30:28;3.10;;;2.33;;
16577;SDS011;8401;52.528;13.340;2023-05-08T07:32:54;4.80;;;2.60;;
16577;SDS011;8401;52.528;13.340;2023-05-08T07:35:19;2.80;;;2.33;;
16577;SDS011;8401;52.528;13.340;2023-05-08T07:37:45;2.90;;;2.00;;
16577;SDS011;8401;52.528;13.340;2023-05-08T07:40:11;4.57;;;1.70;;
16577;SDS011;8401;52.528;13.340;2023-05-08T07:42:40;3.03;;;2.30;;
16577;SDS011;8401;52.528;13.340;2023-05-08T07:45:07;5.27;;;2.43;;
16577;SDS011;8401;52.528;13.340;2023-05-08T07:47:37;2.13;;;1.70;;
16577;SDS011;8401;52.528;13.340;2023-05-08T07:50:14;5.30;;;2.87;;
16577;SDS011;8401;52.528;13.340;2023-05-08T07:52:40;5.70;;;2.43;;
16577;SDS011;8401;52.528;13.340;2023-05-08T07:55:06;2.23;;;1.63;;
16577;SDS011;8401;52.528;13.340;2023-05-08T07:57:35;5.77;;;2.40;;
16577;SDS011;8401;52.528;13.340;2023-05-08T08:00:02;2.27;;;2.00;;
16577;SDS011;8401;52.528;13.340;2023-05-08T08:02:30;3.67;;;2.17;;
16577;SDS011;8401;52.528;13.340;2023-05-08T08:04:55;2.13;;;1.87;;
16577;SDS011;8401;52.528;13.340;2023-05-08T08:07:21;3.20;;;2.33;;
16577;SDS011;8401;52.528;13.340;2023-05-08T08:09:46;2.00;;;1.70;;
16577;SDS011;8401;52.528;13.340;2023-05-08T08:12:12;5.07;;;2.50;;
16577;SDS011;8401;52.528;13.340;2023-05-08T08:14:38;3.57;;;1.90;;
16577;SDS011;8401;52.528;13.340;2023-05-08T08:17:04;4.10;;;2.57;;
16577;SDS011;8401;52.528;13.340;2023-05-08T08:19:29;4.63;;;1.93;;
16577;SDS011;8401;52.528;13.340;2023-05-08T08:21:55;5.00;;;2.17;;
16577;SDS011;8401;52.528;13.340;2023-05-08T08:24:21;4.10;;;2.20;;
16577;SDS011;8401;52.528;13.340;2023-05-08T08:26:47;2.67;;;2.10;;
16577;SDS011;8401;52.528;13.340;2023-05-08T08:29:13;60.20;;;5.40;;
16577;SDS011;8401;52.528;13.340;2023-05-08T08:31:39;5.53;;;1.90;;
16577;SDS011;8401;52.528;13.340;2023-05-08T08:34:04;4.77;;;2.00;;
16577;SDS011;8401;52.528;13.340;2023-05-08T08:36:30;4.03;;;1.90;;
16577;SDS011;8401;52.528;13.340;2023-05-08T08:38:56;3.83;;;1.97;;
16577;SDS011;8401;52.528;13.340;2023-05-08T08:41:23;4.47;;;1.83;;
16577;SDS011;8401;52.528;13.340;2023-05-08T08:43:48;2.40;;;2.20;;
16577;SDS011;8401;52.528;13.340;2023-05-08T08:46:14;2.27;;;2.00;;
16577;SDS011;8401;52.528;13.340;2023-05-08T08:48:44;4.63;;;2.10;;
16577;SDS011;8401;52.528;13.340;2023-05-08T08:51:13;3.53;;;2.20;;
16577;SDS011;8401;52.528;13.340;2023-05-08T08:54:02;2.27;;;2.00;;
16577;SDS011;8401;52.528;13.340;2023-05-08T08:56:39;3.80;;;1.90;;
16577;SDS011;8401;52.528;13.340;2023-05-08T08:59:08;4.20;;;2.10;;
16577;SDS011;8401;52.528;13.340;2023-05-08T09:01:37;9.30;;;2.27;;
16577;SDS011;8401;52.528;13.340;2023-05-08T09:04:04;3.67;;;2.10;;
16577;SDS011;8401;52.528;13.340;2023-05-08T09:06:34;3.17;;;1.90;;
16577;SDS011;8401;52.528;13.340;2023-05-08T09:09:01;4.63;;;2.50;;
16577;SDS011;8401;52.528;13.340;2023-05-08T09:11:27;4.30;;;2.23;;
16577;SDS011;8401;52.528;13.340;2023-05-08T09:13:53;5.40;;;1.90;;
16577;SDS011;8401;52.528;13.340;2023-05-08T09:16:19;6.20;;;2.00;;
16577;SDS011;8401;52.528;13.340;2023-05-08T09:18:46;4.23;;;2.00;;
16577;SDS011;8401;52.528;13.340;2023-05-08T09:21:12;5.17;;;2.60;;
16577;SDS011;8401;52.528;13.340;2023-05-08T09:31:44;5.10;;;2.30;;
16577;SDS011;8401;52.528;13.340;2023-05-08T09:34:21;5.25;;;2.60;;
16577;SDS011;8401;52.528;13.340;2023-05-08T09:36:53;3.85;;;2.40;;
16577;SDS011;8401;52.528;13.340;2023-05-08T09:39:22;4.85;;;2.88;;
16577;SDS011;8401;52.528;13.340;2023-05-08T09:41:56;5.10;;;2.17;;
16577;SDS011;8401;52.528;13.340;2023-05-08T09:44:22;2.15;;;1.95;;
16577;SDS011;8401;52.528;13.340;2023-05-08T09:46:48;2.42;;;2.20;;
16577;SDS011;8401;52.528;13.340;2023-05-08T09:49:17;2.47;;;2.00;;
16577;SDS011;8401;52.528;13.340;2023-05-08T09:51:52;3.60;;;1.88;;
16577;SDS011;8401;52.528;13.340;2023-05-08T09:54:18;2.25;;;1.70;;
16577;SDS011;8401;52.528;13.340;2023-05-08T09:56:44;4.97;;;2.05;;
16577;SDS011;8401;52.528;13.340;2023-05-08T10:01:50;7.43;;;2.05;;
16577;SDS011;8401;52.528;13.340;2023-05-08T10:04:16;4.95;;;2.13;;
16577;SDS011;8401;52.528;13.340;2023-05-08T10:06:42;3.72;;;2.40;;
16577;SDS011;8401;52.528;13.340;2023-05-08T10:09:12;3.33;;;2.17;;
16577;SDS011;8401;52.528;13.340;2023-05-08T10:11:38;4.28;;;1.90;;
16577;SDS011;8401;52.528;13.340;2023-05-08T10:14:05;3.17;;;2.30;;
16577;SDS011;8401;52.528;13.340;2023-05-08T10:16:34;2.70;;;2.35;;
16577;SDS011;8401;52.528;13.340;2023-05-08T10:19:04;4.80;;;2.40;;
16577;SDS011;8401;52.528;13.340;2023-05-08T10:21:36;3.70;;;2.17;;
16577;SDS011;8401;52.528;13.340;2023-05-08T10:24:06;2.38;;;2.17;;
16577;SDS011;8401;52.528;13.340;2023-05-08T10:26:43;3.40;;;1.98;;
16577;SDS011;8401;52.528;13.340;2023-05-08T10:29:16;3.13;;;1.83;;
16577;SDS011;8401;52.528;13.340;2023-05-08T10:31:45;2.85;;;1.73;;
16577;SDS011;8401;52.528;13.340;2023-05-08T10:34:17;3.55;;;1.70;;
16577;SDS011;8401;52.528;13.340;2023-05-08T10:36:46;2.35;;;1.95;;
16577;SDS011;8401;52.528;13.340;2023-05-08T10:39:13;2.03;;;1.70;;
16577;SDS011;8401;52.528;13.340;2023-05-08T10:41:41;2.60;;;1.83;;
16577;SDS011;8401;52.528;13.340;2023-05-08T10:44:07;2.38;;;1.70;;
16577;SDS011;8401;52.528;13.340;2023-05-08T10:46:45;1.60;;;1.50;;
16577;SDS011;8401;52.528;13.340;2023-05-08T10:57:22;4.63;;;2.50;;
16577;SDS011;8401;52.528;13.340;2023-05-08T10:59:48;1.83;;;1.70;;
16577;SDS011;8401;52.528;13.340;2023-05-08T11:02:14;4.28;;;1.88;;
16577;SDS011;8401;52.528;13.340;2023-05-08T11:04:40;5.57;;;2.22;;
16577;SDS011;8401;52.528;13.340;2023-05-08T11:07:07;2.65;;;1.98;;
16577;SDS011;8401;52.528;13.340;2023-05-08T11:15:01;4.22;;;2.15;;
16577;SDS011;8401;52.528;13.340;2023-05-08T11:17:30;2.97;;;1.90;;
16577;SDS011;8401;52.528;13.340;2023-05-08T11:22:24;2.22;;;2.00;;
16577;SDS011;8401;52.528;13.340;2023-05-08T11:24:53;2.40;;;2.05;;
16577;SDS011;8401;52.528;13.340;2023-05-08T11:35:44;3.28;;;2.25;;
16577;SDS011;8401;52.528;13.340;2023-05-08T11:38:18;5.55;;;2.65;;
16577;SDS011;8401;52.528;13.340;2023-05-08T11:48:37;2.00;;;1.80;;
16577;SDS011;8401;52.528;13.340;2023-05-08T11:51:03;2.40;;;1.77;;
16577;SDS011;8401;52.528;13.340;2023-05-08T11:53:31;3.15;;;2.10;;
16577;SDS011;8401;52.528;13.340;2023-05-08T11:55:57;2.67;;;1.67;;
16577;SDS011;8401;52.528;13.340;2023-05-08T11:58:24;3.15;;;1.92;;
16577;SDS011;8401;52.528;13.340;2023-05-08T12:00:50;5.25;;;1.85;;
16577;SDS011;8401;52.528;13.340;2023-05-08T12:03:25;2.83;;;1.88;;
16577;SDS011;8401;52.528;13.340;2023-05-08T12:05:50;3.05;;;1.75;;
16577;SDS011;8401;52.528;13.340;2023-05-08T12:08:21;2.58;;;2.15;;
16577;SDS011;8401;52.528;13.340;2023-05-08T12:10:48;3.20;;;1.95;;
16577;SDS011;8401;52.528;13.340;2023-05-08T12:13:23;3.88;;;1.60;;
16577;SDS011;8401;52.528;13.340;2023-05-08T12:15:59;3.88;;;1.60;;
16577;SDS011;8401;52.528;13.340;2023-05-08T12:18:25;2.08;;;1.88;;
16577;SDS011;8401;52.528;13.340;2023-05-08T12:20:57;4.03;;;1.75;;
16577;SDS011;8401;52.528;13.340;2023-05-08T12:23:24;5.13;;;1.75;;
16577;SDS011;8401;52.528;13.340;2023-05-08T12:25:53;1.92;;;1.50;;
16577;SDS011;8401;52.528;13.340;2023-05-08T12:28:19;2.67;;;1.60;;
16577;SDS011;8401;52.528;13.340;2023-05-08T12:30:45;3.95;;;1.55;;
16577;SDS011;8401;52.528;13.340;2023-05-08T12:33:11;3.63;;;2.03;;
16577;SDS011;8401;52.528;13.340;2023-05-08T12:35:40;2.55;;;2.10;;
16577;SDS011;8401;52.528;13.340;2023-05-08T12:38:06;3.38;;;1.48;;
16577;SDS011;8401;52.528;13.340;2023-05-08T12:40:33;4.93;;;1.60;;
16577;SDS011;8401;52.528;13.340;2023-05-08T12:43:04;2.00;;;1.60;;
16577;SDS011;8401;52.528;13.340;2023-05-08T12:45:30;5.15;;;1.90;;
16577;SDS011;8401;52.528;13.340;2023-05-08T12:47:59;2.72;;;1.75;;
16577;SDS011;8401;52.528;13.340;2023-05-08T12:50:32;3.47;;;2.20;;
16577;SDS011;8401;52.528;13.340;2023-05-08T12:53:09;4.53;;;2.35;;
16577;SDS011;8401;52.528;13.340;2023-05-08T12:55:36;5.00;;;1.85;;
16577;SDS011;8401;52.528;13.340;2023-05-08T13:00:33;2.25;;;1.67;;
16577;SDS011;8401;52.528;13.340;2023-05-08T13:03:00;6.32;;;2.13;;
16577;SDS011;8401;52.528;13.340;2023-05-08T13:05:26;2.63;;;1.70;;
16577;SDS011;8401;52.528;13.340;2023-05-08T13:07:57;1.95;;;1.55;;
16577;SDS011;8401;52.528;13.340;2023-05-08T13:13:08;2.25;;;1.63;;
16577;SDS011;8401;52.528;13.340;2023-05-08T13:15:34;1.70;;;1.15;;
16577;SDS011;8401;52.528;13.340;2023-05-08T13:17:59;2.00;;;1.30;;
16577;SDS011;8401;52.528;13.340;2023-05-08T13:20:25;2.10;;;1.80;;
16577;SDS011;8401;52.528;13.340;2023-05-08T13:22:50;4.77;;;2.20;;
16577;SDS011;8401;52.528;13.340;2023-05-08T13:25:16;2.10;;;1.80;;
16577;SDS011;8401;52.528;13.340;2023-05-08T13:27:42;3.95;;;1.80;;
16577;SDS011;8401;52.528;13.340;2023-05-08T13:30:07;2.95;;;1.70;;
16577;SDS011;8401;52.528;13.340;2023-05-08T13:32:33;3.88;;;2.28;;
16577;SDS011;8401;52.528;13.340;2023-05-08T13:34:59;4.55;;;2.25;;
16577;SDS011;8401;52.528;13.340;2023-05-08T13:37:25;3.33;;;1.63;;
16577;SDS011;8401;52.528;13.340;2023-05-08T13:39:50;3.58;;;1.60;;
16577;SDS011;8401;52.528;13.340;2023-05-08T13:42:16;3.33;;;2.30;;
16577;SDS011;8401;52.528;13.340;2023-05-08T13:44:41;6.55;;;1.58;;
16577;SDS011;8401;52.528;13.340;2023-05-08T13:47:08;2.20;;;1.70;;
16577;SDS011;8401;52.528;13.340;2023-05-08T13:49:34;3.77;;;1.50;;
16577;SDS011;8401;52.528;13.340;2023-05-08T13:51:59;9.70;;;1.83;;
16577;SDS011;8401;52.528;13.340;2023-05-08T13:54:25;2.50;;;1.87;;
16577;SDS011;8401;52.528;13.340;2023-05-08T13:56:51;2.65;;;1.83;;
16577;SDS011;8401;52.528;13.340;2023-05-08T13:59:17;3.88;;;1.92;;
16577;SDS011;8401;52.528;13.340;2023-05-08T14:01:43;1.35;;;1.23;;
16577;SDS011;8401;52.528;13.340;2023-05-08T14:04:09;2.50;;;1.85;;
16577;SDS011;8401;52.528;13.340;2023-05-08T14:06:34;2.25;;;1.63;;
16577;SDS011;8401;52.528;13.340;2023-05-08T14:09:00;1.80;;;1.50;;
16577;SDS011;8401;52.528;13.340;2023-05-08T14:11:26;2.17;;;1.50;;
16577;SDS011;8401;52.528;13.340;2023-05-08T14:13:52;2.05;;;1.50;;
16577;SDS011;8401;52.528;13.340;2023-05-08T14:16:17;3.63;;;1.70;;
16577;SDS011;8401;52.528;13.340;2023-05-08T14:18:43;2.80;;;1.83;;
16577;SDS011;8401;52.528;13.340;2023-05-08T14:21:09;2.97;;;1.50;;
16577;SDS011;8401;52.528;13.340;2023-05-08T14:23:34;1.77;;;1.30;;
16577;SDS011;8401;52.528;13.340;2023-05-08T14:26:01;1.80;;;1.42;;
16577;SDS011;8401;52.528;13.340;2023-05-08T14:28:27;2.42;;;1.60;;
16577;SDS011;8401;52.528;13.340;2023-05-08T14:30:52;3.20;;;1.70;;
16577;SDS011;8401;52.528;13.340;2023-05-08T14:33:18;2.30;;;1.50;;
16577;SDS011;8401;52.528;13.340;2023-05-08T14:35:43;1.73;;;1.40;;
16577;SDS011;8401;52.528;13.340;2023-05-08T14:38:10;2.67;;;1.83;;
16577;SDS011;8401;52.528;13.340;2023-05-08T14:40:36;1.73;;;1.45;;
16577;SDS011;8401;52.528;13.340;2023-05-08T14:43:02;6.15;;;1.67;;
16577;SDS011;8401;52.528;13.340;2023-05-08T14:45:28;2.92;;;1.67;;
16577;SDS011;8401;52.528;13.340;2023-05-08T14:47:53;3.73;;;1.60;;
16577;SDS011;8401;52.528;13.340;2023-05-08T14:50:19;3.35;;;2.08;;
16577;SDS011;8401;52.528;13.340;2023-05-08T14:52:45;4.22;;;2.35;;
16577;SDS011;8401;52.528;13.340;2023-05-08T14:55:10;2.85;;;1.90;;
16577;SDS011;8401;52.528;13.340;2023-05-08T14:57:36;3.10;;;1.90;;
16577;SDS011;8401;52.528;13.340;2023-05-08T15:00:02;3.00;;;1.55;;
16577;SDS011;8401;52.528;13.340;2023-05-08T15:02:28;2.10;;;1.50;;
16577;SDS011;8401;52.528;13.340;2023-05-08T15:04:54;2.17;;;1.35;;
16577;SDS011;8401;52.528;13.340;2023-05-08T15:07:19;1.92;;;1.30;;
16577;SDS011;8401;52.528;13.340;2023-05-08T15:09:45;3.08;;;1.38;;
16577;SDS011;8401;52.528;13.340;2023-05-08T15:12:11;3.47;;;2.00;;
16577;SDS011;8401;52.528;13.340;2023-05-08T15:14:37;2.35;;;1.77;;
16577;SDS011;8401;52.528;13.340;2023-05-08T15:17:03;3.47;;;2.05;;
16577;SDS011;8401;52.528;13.340;2023-05-08T15:19:28;2.00;;;1.80;;
16577;SDS011;8401;52.528;13.340;2023-05-08T15:21:54;2.63;;;1.60;;
16577;SDS011;8401;52.528;13.340;2023-05-08T15:24:19;3.78;;;2.47;;
16577;SDS011;8401;52.528;13.340;2023-05-08T15:26:45;3.47;;;1.97;;
16577;SDS011;8401;52.528;13.340;2023-05-08T15:29:11;3.30;;;2.30;;
16577;SDS011;8401;52.528;13.340;2023-05-08T15:31:36;2.07;;;1.73;;
16577;SDS011;8401;52.528;13.340;2023-05-08T15:34:02;2.03;;;1.80;;
16577;SDS011;8401;52.528;13.340;2023-05-08T15:36:27;3.03;;;1.70;;
16577;SDS011;8401;52.528;13.340;2023-05-08T15:38:55;3.17;;;1.70;;
16577;SDS011;8401;52.528;13.340;2023-05-08T15:41:20;2.83;;;1.97;;
16577;SDS011;8401;52.528;13.340;2023-05-08T15:43:46;2.60;;;1.70;;
16577;SDS011;8401;52.528;13.340;2023-05-08T15:46:12;6.40;;;1.97;;
16577;SDS011;8401;52.528;13.340;2023-05-08T15:48:37;3.00;;;1.73;;
16577;SDS011;8401;52.528;13.340;2023-05-08T15:51:03;2.03;;;1.83;;
16577;SDS011;8401;52.528;13.340;2023-05-08T15:53:29;4.97;;;2.30;;
16577;SDS011;8401;52.528;13.340;2023-05-08T15:55:54;6.83;;;2.10;;
16577;SDS011;8401;52.528;13.340;2023-05-08T15:58:20;2.23;;;1.83;;
16577;SDS011;8401;52.528;13.340;2023-05-08T16:00:46;2.90;;;2.00;;
16577;SDS011;8401;52.528;13.340;2023-05-08T16:03:12;3.47;;;2.17;;
16577;SDS011;8401;52.528;13.340;2023-05-08T16:05:37;2.57;;;2.20;;